sensor_id;sensor_type;location;lat;lon;timestamp;P1;durP1;ratioP1;P2;durP2;ratioP2
68375;SDS011;55318;52.068;5.188;2024-03-02T00:00:39;2.6;;;1.4;;
68375;SDS011;55318;52.068;5.188;2024-03-02T00:02:18;0.8;;;0.8;;
68375;SDS011;55318;52.068;5.188;2024-03-02T00:03:54;1.4;;;1.2;;
68375;SDS011;55318;52.068;5.188;2024-03-02T00:07:06;1.7;;;1.4;;
68375;SDS011;55318;52.068;5.188;2024-03-02T00:08:42;2.1;;;1.11;;
68375;SDS011;55318;52.068;5.188;2024-03-02T00:10:19;3.2;;;1.4;;
68375;SDS011;55318;52.068;5.188;2024-03-02T00:13:36;2.1;;;1.0;;
68375;SDS011;55318;52.068;5.188;2024-03-02T00:15:19;1.9;;;1.11;;
68375;SDS011;55318;52.068;5.188;2024-03-02T00:17:17;2.6;;;1.4;;
68375;SDS011;55318;52.068;5.188;2024-03-02T00:19:01;3.6;;;1.0;;
68375;SDS011;55318;52.068;5.188;2024-03-02T00:20:38;1.2;;;0.7;;
68375;SDS011;55318;52.068;5.188;2024-03-02T00:23:51;0.9;;;0.8;;
68375;SDS011;55318;52.068;5.188;2024-03-02T00:25:31;0.7;;;0.6;;
68375;SDS011;55318;52.068;5.188;2024-03-02T00:27:13;2.5;;;0.5;;
68375;SDS011;55318;52.068;5.188;2024-03-02T00:30:43;0.7;;;0.4;;
68375;SDS011;55318;52.068;5.188;2024-03-02T00:32:27;0.5;;;0.3;;
68375;SDS011;55318;52.068;5.188;2024-03-02T00:34:11;0.4;;;0.2;;
68375;SDS011;55318;52.068;5.188;2024-03-02T00:35:49;0.3;;;0.2;;
68375;SDS011;55318;52.068;5.188;2024-03-02T00:37:26;0.3;;;0.3;;
68375;SDS011;55318;52.068;5.188;2024-03-02T00:40:38;1.4;;;0.3;;
68375;SDS011;55318;52.068;5.188;2024-03-02T00:42:15;0.2;;;0.2;;
68375;SDS011;55318;52.068;5.188;2024-03-02T00:43:56;0.3;;;0.1;;
68375;SDS011;55318;52.068;5.188;2024-03-02T00:47:10;0.1;;;0.1;;
68375;SDS011;55318;52.068;5.188;2024-03-02T00:48:48;0.6;;;0.2;;
68375;SDS011;55318;52.068;5.188;2024-03-02T00:50:29;0.7;;;0.2;;
68375;SDS011;55318;52.068;5.188;2024-03-02T00:52:05;0.1;;;0.1;;
68375;SDS011;55318;52.068;5.188;2024-03-02T00:55:18;0.6;;;0.6;;
68375;SDS011;55318;52.068;5.188;2024-03-02T00:56:59;1.4;;;0.3;;
68375;SDS011;55318;52.068;5.188;2024-03-02T00:58:36;0.6;;;0.4;;
68375;SDS011;55318;52.068;5.188;2024-03-02T01:01:49;0.6;;;0.3;;
68375;SDS011;55318;52.068;5.188;2024-03-02T01:03:25;0.3;;;0.3;;
68375;SDS011;55318;52.068;5.188;2024-03-02T01:05:01;0.4;;;0.4;;
68375;SDS011;55318;52.068;5.188;2024-03-02T01:08:13;0.6;;;0.3;;
68375;SDS011;55318;52.068;5.188;2024-03-02T01:09:49;0.6;;;0.3;;
68375;SDS011;55318;52.068;5.188;2024-03-02T01:11:25;0.3;;;0.3;;
68375;SDS011;55318;52.068;5.188;2024-03-02T01:13:02;0.6;;;0.4;;
68375;SDS011;55318;52.068;5.188;2024-03-02T01:16:14;0.4;;;0.3;;
68375;SDS011;55318;52.068;5.188;2024-03-02T01:17:50;0.4;;;0.4;;
68375;SDS011;55318;52.068;5.188;2024-03-02T01:19:26;0.2;;;0.2;;
68375;SDS011;55318;52.068;5.188;2024-03-02T01:22:39;0.2;;;0.2;;
68375;SDS011;55318;52.068;5.188;2024-03-02T01:24:15;0.7;;;0.6;;
68375;SDS011;55318;52.068;5.188;2024-03-02T01:25:52;0.7;;;0.3;;
68375;SDS011;55318;52.068;5.188;2024-03-02T01:29:05;0.4;;;0.4;;
68375;SDS011;55318;52.068;5.188;2024-03-02T01:30:41;0.9;;;0.5;;
68375;SDS011;55318;52.068;5.188;2024-03-02T01:32:17;0.2;;;0.2;;
68375;SDS011;55318;52.068;5.188;2024-03-02T01:33:53;1.5;;;0.5;;
68375;SDS011;55318;52.068;5.188;2024-03-02T01:37:05;0.4;;;0.4;;
68375;SDS011;55318;52.068;5.188;2024-03-02T01:38:41;0.2;;;0.2;;
68375;SDS011;55318;52.068;5.188;2024-03-02T01:40:17;0.4;;;0.3;;
68375;SDS011;55318;52.068;5.188;2024-03-02T01:43:30;0.3;;;0.3;;
68375;SDS011;55318;52.068;5.188;2024-03-02T01:45:06;0.4;;;0.4;;
68375;SDS011;55318;52.068;5.188;2024-03-02T01:46:44;0.4;;;0.4;;
68375;SDS011;55318;52.068;5.188;2024-03-02T01:49:56;0.4;;;0.4;;
68375;SDS011;55318;52.068;5.188;2024-03-02T01:51:32;0.5;;;0.4;;
68375;SDS011;55318;52.068;5.188;2024-03-02T01:53:08;1.0;;;0.5;;
68375;SDS011;55318;52.068;5.188;2024-03-02T01:56:20;0.8;;;0.7;;
68375;SDS011;55318;52.068;5.188;2024-03-02T01:57:57;1.8;;;0.9;;
68375;SDS011;55318;52.068;5.188;2024-03-02T01:59:33;0.4;;;0.3;;
68375;SDS011;55318;52.068;5.188;2024-03-02T02:01:09;0.6;;;0.3;;
68375;SDS011;55318;52.068;5.188;2024-03-02T02:04:21;0.7;;;0.3;;
68375;SDS011;55318;52.068;5.188;2024-03-02T02:05:57;0.3;;;0.3;;
68375;SDS011;55318;52.068;5.188;2024-03-02T02:07:33;0.3;;;0.3;;
68375;SDS011;55318;52.068;5.188;2024-03-02T02:10:47;0.3;;;0.3;;
68375;SDS011;55318;52.068;5.188;2024-03-02T02:12:23;0.3;;;0.3;;
68375;SDS011;55318;52.068;5.188;2024-03-02T02:14:00;0.2;;;0.2;;
68375;SDS011;55318;52.068;5.188;2024-03-02T02:17:12;0.3;;;0.2;;
68375;SDS011;55318;52.068;5.188;2024-03-02T02:18:48;1.0;;;0.4;;
68375;SDS011;55318;52.068;5.188;2024-03-02T02:20:24;0.4;;;0.3;;
68375;SDS011;55318;52.068;5.188;2024-03-02T02:22:01;0.4;;;0.4;;
68375;SDS011;55318;52.068;5.188;2024-03-02T02:25:14;0.3;;;0.3;;
68375;SDS011;55318;52.068;5.188;2024-03-02T02:26:50;0.6;;;0.6;;
68375;SDS011;55318;52.068;5.188;2024-03-02T02:28:26;0.4;;;0.4;;
68375;SDS011;55318;52.068;5.188;2024-03-02T02:31:39;0.6;;;0.5;;
68375;SDS011;55318;52.068;5.188;2024-03-02T02:33:16;0.7;;;0.4;;
68375;SDS011;55318;52.068;5.188;2024-03-02T02:34:52;1.2;;;0.6;;
68375;SDS011;55318;52.068;5.188;2024-03-02T02:38:04;0.4;;;0.4;;
68375;SDS011;55318;52.068;5.188;2024-03-02T02:39:41;0.7;;;0.5;;
68375;SDS011;55318;52.068;5.188;2024-03-02T02:41:17;0.4;;;0.4;;
68375;SDS011;55318;52.068;5.188;2024-03-02T02:42:53;1.11;;;0.5;;
68375;SDS011;55318;52.068;5.188;2024-03-02T02:46:05;0.6;;;0.5;;
68375;SDS011;55318;52.068;5.188;2024-03-02T02:47:41;0.9;;;0.4;;
68375;SDS011;55318;52.068;5.188;2024-03-02T02:49:18;1.11;;;0.5;;
68375;SDS011;55318;52.068;5.188;2024-03-02T02:52:31;0.6;;;0.5;;
68375;SDS011;55318;52.068;5.188;2024-03-02T02:54:08;0.5;;;0.3;;
68375;SDS011;55318;52.068;5.188;2024-03-02T02:55:44;0.5;;;0.5;;
68375;SDS011;55318;52.068;5.188;2024-03-02T02:58:56;1.11;;;0.4;;
68375;SDS011;55318;52.068;5.188;2024-03-02T03:00:33;0.5;;;0.5;;
68375;SDS011;55318;52.068;5.188;2024-03-02T03:02:08;0.4;;;0.4;;
68375;SDS011;55318;52.068;5.188;2024-03-02T03:05:22;0.4;;;0.3;;
68375;SDS011;55318;52.068;5.188;2024-03-02T03:06:58;1.5;;;0.6;;
68375;SDS011;55318;52.068;5.188;2024-03-02T03:08:34;0.9;;;0.4;;
68375;SDS011;55318;52.068;5.188;2024-03-02T03:10:10;0.3;;;0.3;;
68375;SDS011;55318;52.068;5.188;2024-03-02T03:13:22;1.4;;;0.6;;
68375;SDS011;55318;52.068;5.188;2024-03-02T03:14:58;2.8;;;0.4;;
68375;SDS011;55318;52.068;5.188;2024-03-02T03:16:35;0.6;;;0.5;;
68375;SDS011;55318;52.068;5.188;2024-03-02T03:19:48;0.4;;;0.4;;
68375;SDS011;55318;52.068;5.188;2024-03-02T03:21:24;0.3;;;0.3;;
68375;SDS011;55318;52.068;5.188;2024-03-02T03:23:00;0.5;;;0.3;;
68375;SDS011;55318;52.068;5.188;2024-03-02T03:26:12;1.2;;;0.5;;
68375;SDS011;55318;52.068;5.188;2024-03-02T03:27:48;0.5;;;0.4;;
68375;SDS011;55318;52.068;5.188;2024-03-02T03:29:24;0.5;;;0.2;;
68375;SDS011;55318;52.068;5.188;2024-03-02T03:31:00;1.11;;;0.2;;
68375;SDS011;55318;52.068;5.188;2024-03-02T03:34:13;2.21;;;0.4;;
68375;SDS011;55318;52.068;5.188;2024-03-02T03:35:49;1.7;;;0.5;;
68375;SDS011;55318;52.068;5.188;2024-03-02T03:37:25;1.4;;;0.4;;
68375;SDS011;55318;52.068;5.188;2024-03-02T03:40:40;1.11;;;0.4;;
68375;SDS011;55318;52.068;5.188;2024-03-02T03:42:17;0.4;;;0.4;;
68375;SDS011;55318;52.068;5.188;2024-03-02T03:43:53;4.1;;;0.5;;
68375;SDS011;55318;52.068;5.188;2024-03-02T03:47:06;0.4;;;0.4;;
68375;SDS011;55318;52.068;5.188;2024-03-02T03:48:42;0.8;;;0.4;;
68375;SDS011;55318;52.068;5.188;2024-03-02T03:50:18;0.8;;;0.4;;
68375;SDS011;55318;52.068;5.188;2024-03-02T03:51:54;0.5;;;0.4;;
68375;SDS011;55318;52.068;5.188;2024-03-02T03:55:06;0.4;;;0.3;;
68375;SDS011;55318;52.068;5.188;2024-03-02T03:56:43;0.7;;;0.5;;
68375;SDS011;55318;52.068;5.188;2024-03-02T03:58:19;1.7;;;0.4;;
68375;SDS011;55318;52.068;5.188;2024-03-02T04:03:08;0.3;;;0.3;;
68375;SDS011;55318;52.068;5.188;2024-03-02T04:04:44;1.11;;;0.3;;
68375;SDS011;55318;52.068;5.188;2024-03-02T04:07:56;0.7;;;0.4;;
68375;SDS011;55318;52.068;5.188;2024-03-02T04:09:32;1.11;;;0.4;;
68375;SDS011;55318;52.068;5.188;2024-03-02T04:11:08;0.3;;;0.3;;
68375;SDS011;55318;52.068;5.188;2024-03-02T04:14:21;0.2;;;0.2;;
68375;SDS011;55318;52.068;5.188;2024-03-02T04:15:57;0.4;;;0.4;;
68375;SDS011;55318;52.068;5.188;2024-03-02T04:17:33;1.11;;;0.3;;
68375;SDS011;55318;52.068;5.188;2024-03-02T04:19:09;0.7;;;0.3;;
68375;SDS011;55318;52.068;5.188;2024-03-02T04:22:21;1.11;;;0.4;;
68375;SDS011;55318;52.068;5.188;2024-03-02T04:23:57;0.8;;;0.5;;
68375;SDS011;55318;52.068;5.188;2024-03-02T04:25:33;1.0;;;0.3;;
68375;SDS011;55318;52.068;5.188;2024-03-02T04:28:46;1.7;;;0.5;;
68375;SDS011;55318;52.068;5.188;2024-03-02T04:30:22;0.5;;;0.5;;
68375;SDS011;55318;52.068;5.188;2024-03-02T04:31:58;0.4;;;0.4;;
68375;SDS011;55318;52.068;5.188;2024-03-02T04:35:10;0.5;;;0.3;;
68375;SDS011;55318;52.068;5.188;2024-03-02T04:36:46;1.11;;;0.5;;
68375;SDS011;55318;52.068;5.188;2024-03-02T04:38:22;0.8;;;0.4;;
68375;SDS011;55318;52.068;5.188;2024-03-02T04:41:34;0.9;;;0.7;;
68375;SDS011;55318;52.068;5.188;2024-03-02T04:43:11;1.11;;;0.6;;
68375;SDS011;55318;52.068;5.188;2024-03-02T04:44:47;1.2;;;0.4;;
68375;SDS011;55318;52.068;5.188;2024-03-02T04:46:23;2.5;;;0.6;;
68375;SDS011;55318;52.068;5.188;2024-03-02T04:49:35;0.8;;;0.5;;
68375;SDS011;55318;52.068;5.188;2024-03-02T04:51:11;0.6;;;0.5;;
68375;SDS011;55318;52.068;5.188;2024-03-02T04:52:47;0.4;;;0.4;;
68375;SDS011;55318;52.068;5.188;2024-03-02T04:55:59;1.4;;;0.6;;
68375;SDS011;55318;52.068;5.188;2024-03-02T04:57:36;0.4;;;0.4;;
68375;SDS011;55318;52.068;5.188;2024-03-02T04:59:15;0.5;;;0.5;;
68375;SDS011;55318;52.068;5.188;2024-03-02T05:02:27;1.7;;;0.4;;
68375;SDS011;55318;52.068;5.188;2024-03-02T05:04:03;0.6;;;0.6;;
68375;SDS011;55318;52.068;5.188;2024-03-02T05:05:39;1.4;;;0.4;;
68375;SDS011;55318;52.068;5.188;2024-03-02T05:07:15;0.4;;;0.4;;
68375;SDS011;55318;52.068;5.188;2024-03-02T05:10:27;1.0;;;0.4;;
68375;SDS011;55318;52.068;5.188;2024-03-02T05:12:04;0.6;;;0.4;;
68375;SDS011;55318;52.068;5.188;2024-03-02T05:13:41;1.3;;;0.4;;
68375;SDS011;55318;52.068;5.188;2024-03-02T05:16:53;0.3;;;0.3;;
68375;SDS011;55318;52.068;5.188;2024-03-02T05:18:29;0.5;;;0.3;;
68375;SDS011;55318;52.068;5.188;2024-03-02T05:20:05;0.3;;;0.2;;
68375;SDS011;55318;52.068;5.188;2024-03-02T05:23:19;0.4;;;0.4;;
68375;SDS011;55318;52.068;5.188;2024-03-02T05:24:55;0.9;;;0.4;;
68375;SDS011;55318;52.068;5.188;2024-03-02T05:26:32;0.9;;;0.4;;
68375;SDS011;55318;52.068;5.188;2024-03-02T05:28:09;1.6;;;0.3;;
68375;SDS011;55318;52.068;5.188;2024-03-02T05:31:21;2.7;;;0.4;;
68375;SDS011;55318;52.068;5.188;2024-03-02T05:32:57;0.3;;;0.3;;
68375;SDS011;55318;52.068;5.188;2024-03-02T05:34:33;0.6;;;0.5;;
68375;SDS011;55318;52.068;5.188;2024-03-02T05:37:45;1.0;;;0.7;;
68375;SDS011;55318;52.068;5.188;2024-03-02T05:39:21;0.7;;;0.4;;
68375;SDS011;55318;52.068;5.188;2024-03-02T05:40:57;5.4;;;0.6;;
68375;SDS011;55318;52.068;5.188;2024-03-02T05:44:10;1.2;;;0.5;;
68375;SDS011;55318;52.068;5.188;2024-03-02T05:45:46;0.8;;;0.4;;
68375;SDS011;55318;52.068;5.188;2024-03-02T05:47:22;0.7;;;0.4;;
68375;SDS011;55318;52.068;5.188;2024-03-02T05:50:35;0.5;;;0.5;;
68375;SDS011;55318;52.068;5.188;2024-03-02T05:52:11;0.9;;;0.3;;
68375;SDS011;55318;52.068;5.188;2024-03-02T05:53:47;0.7;;;0.4;;
68375;SDS011;55318;52.068;5.188;2024-03-02T05:55:23;0.4;;;0.3;;
68375;SDS011;55318;52.068;5.188;2024-03-02T05:58:36;1.3;;;0.5;;
68375;SDS011;55318;52.068;5.188;2024-03-02T06:00:12;0.5;;;0.4;;
68375;SDS011;55318;52.068;5.188;2024-03-02T06:01:49;1.0;;;0.6;;
68375;SDS011;55318;52.068;5.188;2024-03-02T06:05:01;0.4;;;0.3;;
68375;SDS011;55318;52.068;5.188;2024-03-02T06:06:37;0.6;;;0.4;;
68375;SDS011;55318;52.068;5.188;2024-03-02T06:08:13;1.11;;;0.6;;
68375;SDS011;55318;52.068;5.188;2024-03-02T06:11:25;1.5;;;0.9;;
68375;SDS011;55318;52.068;5.188;2024-03-02T06:13:01;1.5;;;0.7;;
68375;SDS011;55318;52.068;5.188;2024-03-02T06:14:38;1.11;;;0.4;;
68375;SDS011;55318;52.068;5.188;2024-03-02T06:17:50;0.7;;;0.3;;
68375;SDS011;55318;52.068;5.188;2024-03-02T06:19:26;0.4;;;0.3;;
68375;SDS011;55318;52.068;5.188;2024-03-02T06:21:02;0.6;;;0.3;;
68375;SDS011;55318;52.068;5.188;2024-03-02T06:22:39;3.0;;;0.5;;
68375;SDS011;55318;52.068;5.188;2024-03-02T06:25:51;0.3;;;0.3;;
68375;SDS011;55318;52.068;5.188;2024-03-02T06:27:27;1.3;;;0.4;;
68375;SDS011;55318;52.068;5.188;2024-03-02T06:29:04;0.9;;;0.6;;
68375;SDS011;55318;52.068;5.188;2024-03-02T06:32:16;1.4;;;0.5;;
68375;SDS011;55318;52.068;5.188;2024-03-02T06:33:52;0.8;;;0.4;;
68375;SDS011;55318;52.068;5.188;2024-03-02T06:35:28;0.3;;;0.3;;
68375;SDS011;55318;52.068;5.188;2024-03-02T06:38:40;1.0;;;0.4;;
68375;SDS011;55318;52.068;5.188;2024-03-02T06:40:16;2.21;;;0.6;;
68375;SDS011;55318;52.068;5.188;2024-03-02T06:41:52;0.6;;;0.5;;
68375;SDS011;55318;52.068;5.188;2024-03-02T06:43:28;0.6;;;0.5;;
68375;SDS011;55318;52.068;5.188;2024-03-02T06:46:42;1.5;;;0.6;;
68375;SDS011;55318;52.068;5.188;2024-03-02T06:48:18;3.1;;;0.5;;
68375;SDS011;55318;52.068;5.188;2024-03-02T06:49:55;2.1;;;0.6;;
68375;SDS011;55318;52.068;5.188;2024-03-02T06:53:09;1.0;;;0.6;;
68375;SDS011;55318;52.068;5.188;2024-03-02T06:54:45;1.7;;;0.6;;
68375;SDS011;55318;52.068;5.188;2024-03-02T06:56:21;1.4;;;0.9;;
68375;SDS011;55318;52.068;5.188;2024-03-02T06:59:34;0.9;;;0.6;;
68375;SDS011;55318;52.068;5.188;2024-03-02T07:01:10;2.8;;;0.9;;
68375;SDS011;55318;52.068;5.188;2024-03-02T07:02:46;0.8;;;0.5;;
68375;SDS011;55318;52.068;5.188;2024-03-02T07:04:22;2.1;;;0.8;;
68375;SDS011;55318;52.068;5.188;2024-03-02T07:07:34;1.11;;;0.3;;
68375;SDS011;55318;52.068;5.188;2024-03-02T07:09:10;1.0;;;0.6;;
68375;SDS011;55318;52.068;5.188;2024-03-02T07:10:46;2.7;;;0.8;;
68375;SDS011;55318;52.068;5.188;2024-03-02T07:13:59;1.2;;;0.5;;
68375;SDS011;55318;52.068;5.188;2024-03-02T07:15:38;1.0;;;0.4;;
68375;SDS011;55318;52.068;5.188;2024-03-02T07:17:14;0.7;;;0.6;;
68375;SDS011;55318;52.068;5.188;2024-03-02T07:20:26;0.8;;;0.5;;
68375;SDS011;55318;52.068;5.188;2024-03-02T07:22:05;1.9;;;0.5;;
68375;SDS011;55318;52.068;5.188;2024-03-02T07:23:42;1.9;;;0.7;;
68375;SDS011;55318;52.068;5.188;2024-03-02T07:25:18;1.11;;;0.4;;
68375;SDS011;55318;52.068;5.188;2024-03-02T07:28:30;0.8;;;0.5;;
68375;SDS011;55318;52.068;5.188;2024-03-02T07:30:07;2.5;;;0.5;;
68375;SDS011;55318;52.068;5.188;2024-03-02T07:31:44;4.0;;;1.11;;
68375;SDS011;55318;52.068;5.188;2024-03-02T07:34:56;0.4;;;0.3;;
68375;SDS011;55318;52.068;5.188;2024-03-02T07:36:32;0.5;;;0.5;;
68375;SDS011;55318;52.068;5.188;2024-03-02T07:38:08;1.7;;;0.4;;
68375;SDS011;55318;52.068;5.188;2024-03-02T07:41:20;0.8;;;0.5;;
68375;SDS011;55318;52.068;5.188;2024-03-02T07:42:56;0.9;;;0.7;;
68375;SDS011;55318;52.068;5.188;2024-03-02T07:44:32;1.3;;;0.6;;
68375;SDS011;55318;52.068;5.188;2024-03-02T07:47:45;1.5;;;0.3;;
68375;SDS011;55318;52.068;5.188;2024-03-02T07:49:25;2.4;;;0.6;;
68375;SDS011;55318;52.068;5.188;2024-03-02T07:51:01;1.11;;;0.7;;
68375;SDS011;55318;52.068;5.188;2024-03-02T07:52:37;1.4;;;0.7;;
68375;SDS011;55318;52.068;5.188;2024-03-02T07:55:49;2.9;;;1.2;;
68375;SDS011;55318;52.068;5.188;2024-03-02T07:57:25;2.4;;;1.0;;
68375;SDS011;55318;52.068;5.188;2024-03-02T07:59:02;2.9;;;0.7;;
68375;SDS011;55318;52.068;5.188;2024-03-02T08:02:14;2.6;;;0.5;;
68375;SDS011;55318;52.068;5.188;2024-03-02T08:03:51;1.4;;;0.5;;
68375;SDS011;55318;52.068;5.188;2024-03-02T08:05:27;0.5;;;0.4;;
68375;SDS011;55318;52.068;5.188;2024-03-02T08:08:40;2.21;;;0.6;;
68375;SDS011;55318;52.068;5.188;2024-03-02T08:10:16;2.21;;;0.6;;
68375;SDS011;55318;52.068;5.188;2024-03-02T08:11:52;1.6;;;0.5;;
68375;SDS011;55318;52.068;5.188;2024-03-02T08:13:28;1.5;;;0.5;;
68375;SDS011;55318;52.068;5.188;2024-03-02T08:16:41;4.1;;;0.6;;
68375;SDS011;55318;52.068;5.188;2024-03-02T08:18:17;3.5;;;1.0;;
68375;SDS011;55318;52.068;5.188;2024-03-02T08:19:54;2.7;;;0.7;;
68375;SDS011;55318;52.068;5.188;2024-03-02T08:23:09;1.2;;;0.8;;
68375;SDS011;55318;52.068;5.188;2024-03-02T08:24:45;2.4;;;1.2;;
68375;SDS011;55318;52.068;5.188;2024-03-02T08:26:21;3.7;;;0.6;;
68375;SDS011;55318;52.068;5.188;2024-03-02T08:29:33;0.9;;;0.4;;
68375;SDS011;55318;52.068;5.188;2024-03-02T08:31:09;1.4;;;0.6;;
68375;SDS011;55318;52.068;5.188;2024-03-02T08:32:49;0.7;;;0.6;;
68375;SDS011;55318;52.068;5.188;2024-03-02T08:34:24;0.8;;;0.6;;
68375;SDS011;55318;52.068;5.188;2024-03-02T08:37:38;0.8;;;0.6;;
68375;SDS011;55318;52.068;5.188;2024-03-02T08:39:17;1.4;;;0.6;;
68375;SDS011;55318;52.068;5.188;2024-03-02T08:40:53;1.5;;;0.8;;
68375;SDS011;55318;52.068;5.188;2024-03-02T08:44:05;0.7;;;0.5;;
68375;SDS011;55318;52.068;5.188;2024-03-02T08:45:41;1.11;;;0.6;;
68375;SDS011;55318;52.068;5.188;2024-03-02T08:47:18;2.31;;;0.6;;
68375;SDS011;55318;52.068;5.188;2024-03-02T08:50:30;2.21;;;0.6;;
68375;SDS011;55318;52.068;5.188;2024-03-02T08:52:07;1.3;;;0.6;;
68375;SDS011;55318;52.068;5.188;2024-03-02T08:53:43;1.3;;;0.5;;
68375;SDS011;55318;52.068;5.188;2024-03-02T08:55:19;1.5;;;0.5;;
68375;SDS011;55318;52.068;5.188;2024-03-02T08:58:31;1.9;;;0.8;;
68375;SDS011;55318;52.068;5.188;2024-03-02T09:00:08;0.9;;;0.7;;
68375;SDS011;55318;52.068;5.188;2024-03-02T09:01:44;3.6;;;0.5;;
68375;SDS011;55318;52.068;5.188;2024-03-02T09:04:56;2.21;;;0.8;;
68375;SDS011;55318;52.068;5.188;2024-03-02T09:06:33;6.7;;;1.11;;
68375;SDS011;55318;52.068;5.188;2024-03-02T09:08:09;2.0;;;0.9;;
68375;SDS011;55318;52.068;5.188;2024-03-02T09:11:21;6.0;;;1.0;;
68375;SDS011;55318;52.068;5.188;2024-03-02T09:12:57;4.8;;;1.0;;
68375;SDS011;55318;52.068;5.188;2024-03-02T09:16:12;1.2;;;0.6;;
68375;SDS011;55318;52.068;5.188;2024-03-02T09:19:23;4.7;;;1.2;;
68375;SDS011;55318;52.068;5.188;2024-03-02T09:21:00;1.8;;;1.0;;
68375;SDS011;55318;52.068;5.188;2024-03-02T09:22:36;0.8;;;0.5;;
68375;SDS011;55318;52.068;5.188;2024-03-02T09:25:48;2.21;;;1.3;;
68375;SDS011;55318;52.068;5.188;2024-03-02T09:29:00;2.0;;;0.7;;
68375;SDS011;55318;52.068;5.188;2024-03-02T09:32:12;2.1;;;0.7;;
68375;SDS011;55318;52.068;5.188;2024-03-02T09:33:49;2.7;;;1.0;;
68375;SDS011;55318;52.068;5.188;2024-03-02T09:35:25;1.8;;;0.7;;
68375;SDS011;55318;52.068;5.188;2024-03-02T09:38:38;1.11;;;0.7;;
68375;SDS011;55318;52.068;5.188;2024-03-02T09:40:14;4.2;;;1.4;;
68375;SDS011;55318;52.068;5.188;2024-03-02T09:41:50;2.6;;;0.7;;
68375;SDS011;55318;52.068;5.188;2024-03-02T09:43:26;1.0;;;0.8;;
68375;SDS011;55318;52.068;5.188;2024-03-02T09:46:39;1.8;;;1.0;;
68375;SDS011;55318;52.068;5.188;2024-03-02T09:48:15;2.21;;;0.8;;
68375;SDS011;55318;52.068;5.188;2024-03-02T09:49:51;2.4;;;0.9;;
68375;SDS011;55318;52.068;5.188;2024-03-02T09:53:04;3.0;;;1.0;;
68375;SDS011;55318;52.068;5.188;2024-03-02T09:54:41;0.9;;;0.6;;
68375;SDS011;55318;52.068;5.188;2024-03-02T09:56:17;2.7;;;0.8;;
68375;SDS011;55318;52.068;5.188;2024-03-02T09:59:29;1.6;;;0.8;;
68375;SDS011;55318;52.068;5.188;2024-03-02T10:01:05;4.5;;;1.2;;
68375;SDS011;55318;52.068;5.188;2024-03-02T10:02:41;1.2;;;0.9;;
68375;SDS011;55318;52.068;5.188;2024-03-02T10:04:17;5.2;;;1.11;;
68375;SDS011;55318;52.068;5.188;2024-03-02T10:07:29;3.1;;;1.11;;
68375;SDS011;55318;52.068;5.188;2024-03-02T10:09:06;3.0;;;1.2;;
68375;SDS011;55318;52.068;5.188;2024-03-02T10:10:42;3.3;;;1.11;;
68375;SDS011;55318;52.068;5.188;2024-03-02T10:14:07;3.8;;;0.9;;
68375;SDS011;55318;52.068;5.188;2024-03-02T10:15:44;2.5;;;0.8;;
68375;SDS011;55318;52.068;5.188;2024-03-02T10:17:20;3.5;;;0.8;;
68375;SDS011;55318;52.068;5.188;2024-03-02T10:18:56;4.7;;;1.0;;
68375;SDS011;55318;52.068;5.188;2024-03-02T10:22:09;2.1;;;0.9;;
68375;SDS011;55318;52.068;5.188;2024-03-02T10:23:45;2.4;;;0.7;;
68375;SDS011;55318;52.068;5.188;2024-03-02T10:25:29;1.9;;;0.7;;
68375;SDS011;55318;52.068;5.188;2024-03-02T10:28:45;2.1;;;0.9;;
68375;SDS011;55318;52.068;5.188;2024-03-02T10:30:22;1.3;;;1.0;;
68375;SDS011;55318;52.068;5.188;2024-03-02T10:32:01;2.4;;;0.9;;
68375;SDS011;55318;52.068;5.188;2024-03-02T10:33:38;4.1;;;0.8;;
68375;SDS011;55318;52.068;5.188;2024-03-02T10:36:52;2.7;;;0.7;;
68375;SDS011;55318;52.068;5.188;2024-03-02T10:38:30;3.8;;;1.0;;
68375;SDS011;55318;52.068;5.188;2024-03-02T10:40:07;1.8;;;0.7;;
68375;SDS011;55318;52.068;5.188;2024-03-02T10:43:28;2.4;;;1.11;;
68375;SDS011;55318;52.068;5.188;2024-03-02T10:45:04;2.1;;;0.9;;
68375;SDS011;55318;52.068;5.188;2024-03-02T10:46:43;2.5;;;0.8;;
68375;SDS011;55318;52.068;5.188;2024-03-02T10:48:23;2.6;;;1.11;;
68375;SDS011;55318;52.068;5.188;2024-03-02T10:51:40;3.0;;;1.0;;
68375;SDS011;55318;52.068;5.188;2024-03-02T10:53:17;4.5;;;1.2;;
68375;SDS011;55318;52.068;5.188;2024-03-02T10:54:53;4.7;;;0.9;;
68375;SDS011;55318;52.068;5.188;2024-03-02T10:58:07;1.11;;;0.7;;
68375;SDS011;55318;52.068;5.188;2024-03-02T10:59:51;2.7;;;1.2;;
68375;SDS011;55318;52.068;5.188;2024-03-02T11:01:32;1.7;;;0.8;;
68375;SDS011;55318;52.068;5.188;2024-03-02T11:03:10;4.8;;;0.7;;
68375;SDS011;55318;52.068;5.188;2024-03-02T11:06:27;1.9;;;0.9;;
68375;SDS011;55318;52.068;5.188;2024-03-02T11:08:06;2.31;;;0.7;;
68375;SDS011;55318;52.068;5.188;2024-03-02T11:09:45;2.31;;;0.8;;
68375;SDS011;55318;52.068;5.188;2024-03-02T11:11:30;2.4;;;0.9;;
68375;SDS011;55318;52.068;5.188;2024-03-02T11:14:48;0.9;;;0.7;;
68375;SDS011;55318;52.068;5.188;2024-03-02T11:16:28;3.1;;;0.7;;
68375;SDS011;55318;52.068;5.188;2024-03-02T11:18:09;2.21;;;0.7;;
68375;SDS011;55318;52.068;5.188;2024-03-02T11:19:46;2.7;;;0.9;;
68375;SDS011;55318;52.068;5.188;2024-03-02T11:23:04;0.9;;;0.6;;
68375;SDS011;55318;52.068;5.188;2024-03-02T11:24:47;2.5;;;0.8;;
68375;SDS011;55318;52.068;5.188;2024-03-02T11:26:25;1.6;;;0.7;;
68375;SDS011;55318;52.068;5.188;2024-03-02T11:28:02;2.9;;;0.7;;
68375;SDS011;55318;52.068;5.188;2024-03-02T11:31:21;1.7;;;0.8;;
68375;SDS011;55318;52.068;5.188;2024-03-02T11:32:58;3.5;;;1.0;;
68375;SDS011;55318;52.068;5.188;2024-03-02T11:34:35;1.11;;;0.6;;
68375;SDS011;55318;52.068;5.188;2024-03-02T11:37:48;2.5;;;0.6;;
68375;SDS011;55318;52.068;5.188;2024-03-02T11:39:27;2.0;;;0.9;;
68375;SDS011;55318;52.068;5.188;2024-03-02T11:41:06;2.21;;;0.9;;
68375;SDS011;55318;52.068;5.188;2024-03-02T11:42:43;3.4;;;1.0;;
68375;SDS011;55318;52.068;5.188;2024-03-02T11:45:57;2.0;;;0.7;;
68375;SDS011;55318;52.068;5.188;2024-03-02T11:47:34;5.0;;;1.4;;
68375;SDS011;55318;52.068;5.188;2024-03-02T11:49:10;1.7;;;0.7;;
68375;SDS011;55318;52.068;5.188;2024-03-02T11:52:26;3.0;;;0.8;;
68375;SDS011;55318;52.068;5.188;2024-03-02T11:54:03;1.7;;;0.5;;
68375;SDS011;55318;52.068;5.188;2024-03-02T11:55:41;1.9;;;0.8;;
68375;SDS011;55318;52.068;5.188;2024-03-02T11:57:19;2.31;;;0.8;;
68375;SDS011;55318;52.068;5.188;2024-03-02T12:00:33;1.3;;;1.0;;
68375;SDS011;55318;52.068;5.188;2024-03-02T12:02:14;2.8;;;0.7;;
68375;SDS011;55318;52.068;5.188;2024-03-02T12:03:51;0.8;;;0.5;;
68375;SDS011;55318;52.068;5.188;2024-03-02T12:07:04;2.31;;;0.8;;
68375;SDS011;55318;52.068;5.188;2024-03-02T12:08:41;1.3;;;0.7;;
68375;SDS011;55318;52.068;5.188;2024-03-02T12:10:17;3.1;;;0.6;;
68375;SDS011;55318;52.068;5.188;2024-03-02T12:12:01;2.4;;;0.9;;
68375;SDS011;55318;52.068;5.188;2024-03-02T12:15:14;2.21;;;0.9;;
68375;SDS011;55318;52.068;5.188;2024-03-02T12:16:51;1.8;;;1.0;;
68375;SDS011;55318;52.068;5.188;2024-03-02T12:18:27;1.3;;;0.7;;
68375;SDS011;55318;52.068;5.188;2024-03-02T12:21:40;2.4;;;0.7;;
68375;SDS011;55318;52.068;5.188;2024-03-02T12:23:16;2.31;;;0.7;;
68375;SDS011;55318;52.068;5.188;2024-03-02T12:24:53;4.0;;;0.9;;
68375;SDS011;55318;52.068;5.188;2024-03-02T12:28:05;1.0;;;0.8;;
68375;SDS011;55318;52.068;5.188;2024-03-02T12:29:41;1.2;;;0.5;;
68375;SDS011;55318;52.068;5.188;2024-03-02T12:31:20;2.5;;;0.7;;
68375;SDS011;55318;52.068;5.188;2024-03-02T12:32:56;1.7;;;0.8;;
68375;SDS011;55318;52.068;5.188;2024-03-02T12:36:09;2.9;;;0.9;;
68375;SDS011;55318;52.068;5.188;2024-03-02T12:37:45;1.2;;;0.5;;
68375;SDS011;55318;52.068;5.188;2024-03-02T12:39:23;2.6;;;0.8;;
68375;SDS011;55318;52.068;5.188;2024-03-02T12:42:35;1.3;;;0.6;;
68375;SDS011;55318;52.068;5.188;2024-03-02T12:44:11;2.0;;;0.6;;
68375;SDS011;55318;52.068;5.188;2024-03-02T12:45:47;1.0;;;0.9;;
68375;SDS011;55318;52.068;5.188;2024-03-02T12:49:04;4.1;;;1.0;;
68375;SDS011;55318;52.068;5.188;2024-03-02T12:50:44;2.7;;;0.8;;
68375;SDS011;55318;52.068;5.188;2024-03-02T12:52:20;3.4;;;0.6;;
68375;SDS011;55318;52.068;5.188;2024-03-02T12:53:56;1.3;;;0.6;;
68375;SDS011;55318;52.068;5.188;2024-03-02T12:57:09;2.21;;;0.9;;
68375;SDS011;55318;52.068;5.188;2024-03-02T12:58:45;1.7;;;0.7;;
68375;SDS011;55318;52.068;5.188;2024-03-02T13:00:21;3.6;;;1.3;;
68375;SDS011;55318;52.068;5.188;2024-03-02T13:03:34;1.7;;;0.7;;